Time;durP1;ratioP1;P1;durP2;ratioP2;P2;SDS_P1;SDS_P2;PMS_P1;PMS_P2;Temp;Humidity;BMP_temperature;BMP_pressure;BME280_temperature;BME280_humidity;BME280_pressure;Samples;Min_cycle;Max_cycle;Signal;HPM_P1;HPM_P2
2022/12/28 00:00:50;;;;;;;15.98;10.75;;;5.10;99.90;;;;;;5052989;28;20044;-84
2022/12/28 00:03:16;;;;;;;16.83;11.77;;;5.20;99.90;;;;;;5051800;28;20037;-84
2022/12/28 00:05:42;;;;;;;18.45;13.20;;;5.00;99.90;;;;;;5053123;28;20017;-84
2022/12/28 00:08:07;;;;;;;15.23;10.35;;;4.90;99.90;;;;;;5053155;28;20025;-85
2022/12/28 00:10:33;;;;;;;20.17;13.65;;;5.10;99.90;;;;;;5052376;28;20032;-84
2022/12/28 00:12:59;;;;;;;18.50;12.98;;;4.60;99.90;;;;;;5053072;28;20032;-84
2022/12/28 00:15:24;;;;;;;18.85;13.55;;;4.70;99.90;;;;;;5052976;28;20082;-84
2022/12/28 00:17:50;;;;;;;17.30;12.93;;;4.70;99.90;;;;;;5052735;28;20166;-84
2022/12/28 00:20:16;;;;;;;18.33;14.25;;;5.00;99.90;;;;;;5051604;28;20025;-84
2022/12/28 00:22:41;;;;;;;19.30;14.07;;;4.70;99.90;;;;;;5051540;28;20031;-84
2022/12/28 00:25:08;;;;;;;24.23;16.23;;;4.90;99.90;;;;;;5052827;28;20036;-84
2022/12/28 00:27:33;;;;;;;18.95;13.90;;;4.50;99.90;;;;;;5053224;28;20025;-84
2022/12/28 00:29:59;;;;;;;18.25;12.90;;;4.40;99.90;;;;;;5052479;28;20039;-84
2022/12/28 00:32:24;;;;;;;19.70;13.10;;;4.40;99.90;;;;;;5051383;28;20485;-84
2022/12/28 00:34:50;;;;;;;18.70;13.70;;;4.30;99.90;;;;;;5052574;28;20052;-84
2022/12/28 00:37:16;;;;;;;19.13;13.55;;;4.20;99.90;;;;;;5052701;28;20106;-84
2022/12/28 00:39:41;;;;;;;19.15;13.68;;;4.10;99.90;;;;;;5052653;28;20099;-84
2022/12/28 00:42:07;;;;;;;23.95;16.25;;;4.20;99.90;;;;;;5052346;28;20020;-84
2022/12/28 00:44:33;;;;;;;20.95;14.68;;;4.60;99.90;;;;;;5052149;28;20045;-84
2022/12/28 00:46:59;;;;;;;20.45;15.23;;;4.70;99.90;;;;;;5052664;28;20389;-84
2022/12/28 00:49:24;;;;;;;20.42;15.18;;;4.70;99.90;;;;;;5052469;28;20470;-83
2022/12/28 00:51:50;;;;;;;21.33;14.60;;;4.30;99.90;;;;;;5052445;28;20497;-83
2022/12/28 00:54:15;;;;;;;18.98;14.65;;;4.20;99.90;;;;;;5050821;28;20029;-84
2022/12/28 00:56:45;;;;;;;20.08;14.77;;;4.00;99.90;;;;;;5052339;28;20044;-84
2022/12/28 00:59:11;;;;;;;19.02;13.82;;;4.00;99.90;;;;;;5052185;28;20051;-84
2022/12/28 01:01:36;;;;;;;18.73;13.30;;;4.10;99.90;;;;;;5052025;28;20049;-84
2022/12/28 01:04:02;;;;;;;17.20;12.00;;;4.20;99.90;;;;;;5052237;28;20119;-84
2022/12/28 01:06:28;;;;;;;18.08;12.23;;;4.30;99.90;;;;;;5052220;28;20040;-84
2022/12/28 01:08:55;;;;;;;16.02;11.77;;;4.40;99.90;;;;;;5052631;28;20036;-84
2022/12/28 01:11:25;;;;;;;15.40;10.52;;;4.30;99.90;;;;;;5052099;28;20536;-84
2022/12/28 01:13:53;;;;;;;13.52;10.32;;;4.30;99.90;;;;;;5051701;28;20078;-84
2022/12/28 01:16:21;;;;;;;17.15;10.38;;;4.50;99.90;;;;;;5052121;28;20600;-84
2022/12/28 01:18:50;;;;;;;13.82;10.23;;;4.40;99.90;;;;;;5052048;28;20033;-84
2022/12/28 01:21:18;;;;;;;14.38;9.48;;;4.50;99.90;;;;;;5051629;28;20036;-84
2022/12/28 01:23:45;;;;;;;13.38;9.50;;;4.30;99.90;;;;;;5051951;28;20083;-84
2022/12/28 01:26:12;;;;;;;13.30;9.05;;;4.20;99.90;;;;;;5051738;28;20429;-84
2022/12/28 01:28:37;;;;;;;14.40;10.27;;;4.30;99.90;;;;;;5052161;28;20468;-84
2022/12/28 01:31:05;;;;;;;11.90;9.52;;;4.70;99.90;;;;;;5051748;28;20112;-84
2022/12/28 01:33:31;;;;;;;13.98;10.18;;;4.50;99.90;;;;;;5051650;28;20485;-84
2022/12/28 01:35:56;;;;;;;12.73;10.02;;;4.90;99.90;;;;;;5052215;28;20025;-84
2022/12/28 01:38:22;;;;;;;14.13;9.90;;;4.50;99.90;;;;;;5051908;28;20025;-84
2022/12/28 01:40:47;;;;;;;12.70;9.85;;;4.50;99.90;;;;;;5051547;28;20105;-84
2022/12/28 01:43:13;;;;;;;13.15;9.48;;;4.90;99.90;;;;;;5051736;28;20040;-84
2022/12/28 01:45:41;;;;;;;13.45;9.63;;;4.50;99.90;;;;;;5051994;28;20036;-84
2022/12/28 01:48:16;;;;;;;14.73;9.48;;;4.40;99.90;;;;;;5051426;28;20070;-84
2022/12/28 01:50:42;;;;;;;14.68;9.85;;;4.50;99.90;;;;;;5052111;28;20025;-84
2022/12/28 01:53:08;;;;;;;12.93;9.65;;;4.50;99.90;;;;;;5051555;28;20037;-84
2022/12/28 01:55:38;;;;;;;12.05;9.18;;;5.00;99.90;;;;;;5051523;28;20021;-84
2022/12/28 01:58:16;;;;;;;12.18;8.95;;;4.50;99.90;;;;;;5051726;28;20029;-84
2022/12/28 02:00:42;;;;;;;12.40;9.50;;;4.50;99.90;;;;;;5051404;28;20102;-84
2022/12/28 02:03:17;;;;;;;14.82;9.48;;;4.70;99.90;;;;;;5051921;28;20480;-83
2022/12/28 02:05:47;;;;;;;11.55;9.00;;;4.60;99.90;;;;;;5050187;28;20082;-84
2022/12/28 02:08:36;;;;;;;14.98;8.95;;;4.50;99.90;;;;;;5050299;28;20511;-83
2022/12/28 02:11:04;;;;;;;14.23;9.25;;;4.60;99.90;;;;;;5050340;28;20021;-84
2022/12/28 02:13:31;;;;;;;13.07;9.00;;;4.60;99.90;;;;;;5050111;28;20032;-84
2022/12/28 02:15:56;;;;;;;13.40;9.48;;;4.60;99.90;;;;;;5051499;28;20021;-84
2022/12/28 02:18:24;;;;;;;11.90;9.32;;;5.00;99.90;;;;;;5050162;28;20040;-84
2022/12/28 02:21:04;;;;;;;14.40;9.27;;;4.60;99.90;;;;;;5050145;28;20490;-83
2022/12/28 02:23:51;;;;;;;11.95;8.68;;;4.60;99.90;;;;;;5051432;28;20040;-84
2022/12/28 02:26:31;;;;;;;11.77;8.68;;;4.40;99.90;;;;;;5051115;28;20524;-84
2022/12/28 02:29:15;;;;;;;11.32;8.38;;;4.30;99.90;;;;;;5050042;28;20029;-84
2022/12/28 02:32:03;;;;;;;10.75;8.45;;;4.40;99.90;;;;;;5051709;28;20060;-84
2022/12/28 02:34:43;;;;;;;12.40;8.73;;;4.30;99.90;;;;;;5054178;28;20072;-84
2022/12/28 02:37:21;;;;;;;12.25;8.45;;;4.30;99.90;;;;;;5054704;28;20108;-84
2022/12/28 02:39:55;;;;;;;11.73;8.18;;;4.20;99.90;;;;;;5054473;28;20389;-84
2022/12/28 02:42:23;;;;;;;11.10;7.93;;;4.50;99.90;;;;;;5054693;28;20059;-84
2022/12/28 02:50:19;;;;;;;10.93;7.88;;;4.40;99.90;;;;;;5054741;28;20569;-84
2022/12/28 02:52:56;;;;;;;11.15;8.45;;;4.20;99.90;;;;;;5054561;28;20032;-84
2022/12/28 02:58:46;;;;;;;10.25;7.60;;;4.10;99.90;;;;;;5054345;28;20176;-84
2022/12/28 03:01:31;;;;;;;10.13;8.18;;;4.00;99.90;;;;;;5054650;28;20060;-84
2022/12/28 03:04:27;;;;;;;11.65;7.55;;;4.00;99.90;;;;;;5054068;28;20399;-84
2022/12/28 03:10:09;;;;;;;11.05;7.90;;;3.90;99.90;;;;;;5054317;28;20044;-84
2022/12/28 03:12:44;;;;;;;12.98;7.90;;;4.30;99.90;;;;;;5054103;28;20112;-84
2022/12/28 03:15:28;;;;;;;11.25;8.02;;;4.30;99.90;;;;;;5054542;28;20067;-84
2022/12/28 03:32:08;;;;;;;14.65;10.00;;;4.00;99.90;;;;;;5054202;28;20035;-84
2022/12/28 03:34:34;;;;;;;15.25;9.93;;;4.40;99.90;;;;;;5054107;28;20512;-84
2022/12/28 03:37:16;;;;;;;13.90;9.50;;;3.80;99.90;;;;;;5053538;28;20033;-84
2022/12/28 03:39:51;;;;;;;15.38;10.40;;;3.80;99.90;;;;;;5053969;28;20017;-84
2022/12/28 03:45:31;;;;;;;14.38;9.93;;;3.70;99.90;;;;;;5052843;28;20132;-84
2022/12/28 03:48:00;;;;;;;15.77;10.40;;;3.80;99.90;;;;;;5053515;28;20036;-84
2022/12/28 03:50:26;;;;;;;15.95;10.15;;;3.80;99.90;;;;;;5053466;28;20044;-84
2022/12/28 03:52:52;;;;;;;18.00;10.60;;;4.20;99.90;;;;;;5053130;28;20435;-83
2022/12/28 03:55:18;;;;;;;15.70;10.10;;;3.80;99.90;;;;;;5053356;28;20092;-83
2022/12/28 03:57:43;;;;;;;14.73;9.52;;;3.70;99.90;;;;;;5053400;28;20029;-83
2022/12/28 04:00:09;;;;;;;13.75;9.48;;;4.00;99.90;;;;;;5053504;28;20409;-84
2022/12/28 04:02:36;;;;;;;13.68;9.68;;;3.70;99.90;;;;;;5051816;28;20126;-84
2022/12/28 04:05:02;;;;;;;13.25;9.50;;;3.90;99.90;;;;;;5053201;28;20033;-84
2022/12/28 04:07:28;;;;;;;14.60;9.63;;;3.80;99.90;;;;;;5053110;28;20053;-84
2022/12/28 04:09:53;;;;;;;13.90;9.52;;;3.70;99.90;;;;;;5051744;28;20060;-84
2022/12/28 04:12:19;;;;;;;14.85;9.57;;;3.70;99.90;;;;;;5053381;28;20029;-85
2022/12/28 04:14:45;;;;;;;13.77;9.70;;;4.30;99.90;;;;;;5053088;28;20036;-84
2022/12/28 04:17:10;;;;;;;16.85;10.50;;;4.00;99.90;;;;;;5053294;28;20482;-84
2022/12/28 04:19:36;;;;;;;14.88;9.73;;;3.50;99.90;;;;;;5053064;28;20021;-87
2022/12/28 04:22:01;;;;;;;13.75;9.05;;;3.90;99.90;;;;;;5052582;28;20420;-84
2022/12/28 04:24:27;;;;;;;10.88;8.68;;;3.70;99.90;;;;;;5051432;28;20052;-84
2022/12/28 04:26:53;;;;;;;13.25;9.27;;;3.30;99.90;;;;;;5053316;28;20049;-84
2022/12/28 04:29:18;;;;;;;12.00;8.45;;;3.60;99.90;;;;;;5052857;28;20036;-84
2022/12/28 04:31:44;;;;;;;12.45;8.65;;;3.60;99.90;;;;;;5052943;28;20363;-84
2022/12/28 04:34:10;;;;;;;12.27;8.20;;;3.40;99.90;;;;;;5052385;28;20028;-84
2022/12/28 04:36:35;;;;;;;12.55;8.93;;;3.10;99.90;;;;;;5052637;28;20037;-84
2022/12/28 04:39:01;;;;;;;11.52;8.75;;;3.10;99.90;;;;;;5051231;28;20029;-84
2022/12/28 04:41:27;;;;;;;11.55;7.85;;;3.40;99.90;;;;;;5051336;28;20078;-84
2022/12/28 04:43:55;;;;;;;11.07;7.95;;;3.00;99.90;;;;;;5052793;28;20029;-84
2022/12/28 04:46:23;;;;;;;12.70;8.00;;;2.90;99.90;;;;;;5052684;28;20082;-84
2022/12/28 04:48:49;;;;;;;12.00;8.18;;;2.90;99.90;;;;;;5052462;28;20389;-84
2022/12/28 04:51:19;;;;;;;13.38;8.70;;;3.50;99.90;;;;;;5052171;28;20040;-84
2022/12/28 04:53:45;;;;;;;13.20;9.15;;;3.40;99.90;;;;;;5052485;28;20040;-84
2022/12/28 04:56:12;;;;;;;14.55;9.38;;;2.80;99.90;;;;;;5052042;28;20058;-84
2022/12/28 04:58:38;;;;;;;12.82;8.35;;;3.20;99.90;;;;;;5050914;28;20067;-84
2022/12/28 05:01:09;;;;;;;12.15;8.60;;;3.30;99.90;;;;;;5052111;28;20041;-84
2022/12/28 05:03:36;;;;;;;13.35;8.52;;;2.80;99.90;;;;;;5052554;28;20045;-84
2022/12/28 05:06:05;;;;;;;11.55;8.35;;;2.80;99.90;;;;;;5051119;28;20040;-84
2022/12/28 05:08:32;;;;;;;10.90;8.23;;;2.80;99.90;;;;;;5050692;28;20128;-84
2022/12/28 05:11:02;;;;;;;13.00;8.73;;;2.70;99.90;;;;;;5050785;28;20036;-84
2022/12/28 05:13:28;;;;;;;11.07;8.32;;;3.10;99.90;;;;;;5050863;28;20531;-84
2022/12/28 05:15:53;;;;;;;13.50;8.65;;;2.80;99.90;;;;;;5050789;28;20033;-84
2022/12/28 05:18:19;;;;;;;11.95;7.97;;;3.10;99.90;;;;;;5052145;28;20068;-84
2022/12/28 05:20:45;;;;;;;12.25;8.82;;;2.80;99.90;;;;;;5052009;28;20033;-84
2022/12/28 05:23:11;;;;;;;12.98;8.48;;;2.90;99.90;;;;;;5051730;28;20127;-84
2022/12/28 05:25:36;;;;;;;10.98;8.25;;;2.80;99.90;;;;;;5052045;28;20031;-84
2022/12/28 05:28:02;;;;;;;10.55;8.18;;;2.70;99.90;;;;;;5050623;28;20037;-83
2022/12/28 05:30:28;;;;;;;11.25;8.52;;;2.70;99.90;;;;;;5050976;28;20027;-84
2022/12/28 05:32:53;;;;;;;13.38;8.32;;;2.70;99.90;;;;;;5051639;28;20485;-83
2022/12/28 05:35:19;;;;;;;13.20;8.38;;;2.80;99.90;;;;;;5050591;28;20052;-84
2022/12/28 05:37:44;;;;;;;15.43;9.73;;;2.70;99.90;;;;;;5051857;28;20064;-83
2022/12/28 05:40:10;;;;;;;15.77;10.00;;;3.20;99.90;;;;;;5050851;28;20025;-84
2022/12/28 05:42:36;;;;;;;13.57;9.30;;;2.70;99.90;;;;;;5051805;28;20060;-83
2022/12/28 05:45:02;;;;;;;15.65;9.88;;;2.70;99.90;;;;;;5051873;28;20443;-84
2022/12/28 05:47:28;;;;;;;12.23;8.57;;;2.80;99.90;;;;;;5051265;28;20120;-84
2022/12/28 05:49:53;;;;;;;13.77;9.60;;;3.10;99.90;;;;;;5051880;28;20490;-85
2022/12/28 05:52:19;;;;;;;13.57;8.95;;;2.70;99.90;;;;;;5051485;28;20025;-84
2022/12/28 05:54:45;;;;;;;18.55;9.05;;;2.60;99.90;;;;;;5052175;28;20041;-84
2022/12/28 05:57:10;;;;;;;13.73;8.63;;;2.60;99.90;;;;;;5051660;28;20566;-83
2022/12/28 05:59:36;;;;;;;12.50;8.45;;;2.60;99.90;;;;;;5051580;28;20505;-84
2022/12/28 06:02:02;;;;;;;13.45;8.93;;;2.60;99.90;;;;;;5051176;28;20084;-84
2022/12/28 06:04:27;;;;;;;14.32;9.70;;;3.10;99.90;;;;;;5051575;28;20033;-84
2022/12/28 06:06:53;;;;;;;15.23;9.07;;;2.60;99.90;;;;;;5050248;28;20096;-84
2022/12/28 06:09:20;;;;;;;13.70;9.00;;;2.70;99.90;;;;;;5054437;28;20028;-84
2022/12/28 06:11:45;;;;;;;12.93;8.85;;;2.60;99.90;;;;;;5055283;28;20516;-84
2022/12/28 06:14:11;;;;;;;16.95;9.43;;;2.60;99.90;;;;;;5054158;28;20021;-84
2022/12/28 06:16:39;;;;;;;13.70;9.20;;;2.50;99.90;;;;;;5055297;28;20043;-84
2022/12/28 06:19:07;;;;;;;12.20;8.10;;;2.80;99.90;;;;;;5054887;28;20482;-84
2022/12/28 06:21:34;;;;;;;12.07;8.63;;;2.60;99.90;;;;;;5055541;28;20029;-84
2022/12/28 06:24:01;;;;;;;13.40;8.90;;;2.50;99.90;;;;;;5055177;28;20032;-83
2022/12/28 06:26:30;;;;;;;12.50;8.80;;;2.70;99.90;;;;;;5055100;28;20056;-84
2022/12/28 06:28:56;;;;;;;14.95;9.50;;;2.60;99.90;;;;;;5054171;28;20052;-84
2022/12/28 06:31:24;;;;;;;15.90;9.10;;;2.40;99.90;;;;;;5054759;28;20446;-84
2022/12/28 06:33:55;;;;;;;16.10;9.43;;;2.40;99.90;;;;;;5054732;28;20048;-83
2022/12/28 06:36:29;;;;;;;15.88;10.02;;;2.60;99.90;;;;;;5054875;28;20379;-84
2022/12/28 06:38:57;;;;;;;16.42;10.35;;;2.60;99.90;;;;;;5054850;28;20025;-84
2022/12/28 06:41:24;;;;;;;15.40;10.73;;;2.70;99.90;;;;;;5054884;28;20032;-84
2022/12/28 06:43:50;;;;;;;19.38;11.13;;;2.80;99.90;;;;;;5055141;28;20084;-84
2022/12/28 06:46:17;;;;;;;18.23;10.88;;;3.20;99.90;;;;;;5054385;28;20060;-84
2022/12/28 06:48:44;;;;;;;18.90;10.40;;;2.80;99.90;;;;;;5054554;28;20033;-84
2022/12/28 06:51:14;;;;;;;19.10;11.10;;;3.10;99.90;;;;;;5055017;28;20036;-84
2022/12/28 06:53:40;;;;;;;20.02;12.52;;;2.70;99.90;;;;;;5054484;28;20064;-84
2022/12/28 06:56:09;;;;;;;21.23;13.45;;;2.80;99.90;;;;;;5054548;28;20044;-84
2022/12/28 06:58:35;;;;;;;23.55;14.43;;;2.90;99.90;;;;;;5054474;28;20043;-83
2022/12/28 07:01:17;;;;;;;21.45;13.93;;;3.30;99.90;;;;;;5054105;28;20060;-84
2022/12/28 07:03:44;;;;;;;17.30;11.30;;;2.90;99.90;;;;;;5054216;28;20052;-84
2022/12/28 07:06:11;;;;;;;18.58;11.50;;;3.00;99.90;;;;;;5054507;28;20032;-84
2022/12/28 07:08:37;;;;;;;14.00;10.55;;;3.00;99.90;;;;;;5054397;28;20489;-84
2022/12/28 07:11:08;;;;;;;17.15;10.57;;;3.20;99.90;;;;;;5054131;28;20017;-84
2022/12/28 07:13:34;;;;;;;16.27;10.35;;;3.00;99.90;;;;;;5054422;28;20071;-85
2022/12/28 07:16:14;;;;;;;16.55;10.88;;;3.10;99.90;;;;;;5054158;28;20025;-84
2022/12/28 07:18:41;;;;;;;17.25;11.15;;;3.20;99.90;;;;;;5053120;28;20104;-84
2022/12/28 07:21:12;;;;;;;16.98;11.48;;;3.20;99.90;;;;;;5054035;28;20115;-83
2022/12/28 07:23:38;;;;;;;17.70;11.68;;;3.40;99.90;;;;;;5053921;28;20374;-84
2022/12/28 07:26:08;;;;;;;19.23;11.15;;;3.70;99.90;;;;;;5053986;28;20051;-83
2022/12/28 07:28:37;;;;;;;19.67;11.88;;;3.70;99.90;;;;;;5053418;28;20036;-85
2022/12/28 07:31:07;;;;;;;21.00;12.30;;;3.80;99.90;;;;;;5053913;28;20025;-84
2022/12/28 07:33:34;;;;;;;20.10;12.95;;;3.60;99.90;;;;;;5052078;28;20393;-85
2022/12/28 07:36:00;;;;;;;21.13;12.55;;;4.00;99.90;;;;;;5053996;28;20486;-85
2022/12/28 07:38:26;;;;;;;18.92;12.63;;;3.90;99.90;;;;;;5053729;28;20032;-84
2022/12/28 07:40:51;;;;;;;21.65;12.73;;;3.70;99.90;;;;;;5053777;28;20390;-84
2022/12/28 07:43:17;;;;;;;19.40;13.35;;;3.90;99.90;;;;;;5051950;28;20183;-85
2022/12/28 07:45:43;;;;;;;21.08;13.93;;;4.80;99.90;;;;;;5053430;28;20029;-84
2022/12/28 07:48:08;;;;;;;22.55;13.48;;;4.70;99.90;;;;;;5053371;28;20098;-85
2022/12/28 07:50:34;;;;;;;21.88;15.35;;;5.10;99.90;;;;;;5052253;28;20111;-85
2022/12/28 07:53:00;;;;;;;24.52;14.63;;;5.10;99.90;;;;;;5053517;28;20025;-84
2022/12/28 07:55:28;;;;;;;22.30;14.73;;;5.40;99.90;;;;;;5053744;28;20041;-85
2022/12/28 07:57:54;;;;;;;20.00;13.80;;;6.40;99.90;;;;;;5051643;28;20111;-89
2022/12/28 08:00:20;;;;;;;20.05;13.05;;;8.00;99.90;;;;;;5043892;28;20512;-87
2022/12/28 08:02:46;;;;;;;17.63;12.13;;;7.70;99.90;;;;;;5032402;28;20049;-87
2022/12/28 08:05:11;;;;;;;18.77;11.45;;;7.50;99.90;;;;;;5040860;28;20070;-86
2022/12/28 08:07:37;;;;;;;15.68;11.23;;;6.90;99.90;;;;;;5053576;28;20024;-86
2022/12/28 08:10:03;;;;;;;13.98;10.68;;;9.20;99.90;;;;;;5052676;28;20055;-88
2022/12/28 08:12:28;;;;;;;14.02;9.90;;;10.40;99.90;;;;;;5051938;28;20024;-87
2022/12/28 08:14:54;;;;;;;11.48;8.73;;;9.90;99.90;;;;;;5053261;28;20421;-88
2022/12/28 08:17:20;;;;;;;9.80;7.85;;;8.70;99.90;;;;;;5053768;28;20398;-88
2022/12/28 08:19:46;;;;;;;10.65;8.35;;;6.80;99.90;;;;;;5053381;28;20017;-88
2022/12/28 08:22:11;;;;;;;13.38;8.60;;;6.40;99.90;;;;;;5053898;28;20029;-88
2022/12/28 08:24:37;;;;;;;10.10;8.55;;;6.30;99.90;;;;;;5053581;28;20033;-88
2022/12/28 08:27:03;;;;;;;10.32;8.13;;;7.10;99.90;;;;;;5053275;28;20053;-88
2022/12/28 08:29:28;;;;;;;11.27;8.30;;;7.80;99.90;;;;;;5053247;28;20029;-88
2022/12/28 08:31:54;;;;;;;9.38;7.65;;;9.70;99.90;;;;;;5052521;28;20028;-88
2022/12/28 08:34:25;;;;;;;8.77;7.22;;;13.10;99.90;;;;;;5053097;28;20385;-88
2022/12/28 08:36:55;;;;;;;11.57;8.25;;;14.60;99.90;;;;;;5053133;28;20086;-89
2022/12/28 08:39:21;;;;;;;9.95;7.63;;;14.40;99.90;;;;;;5053694;28;20319;-89
2022/12/28 08:41:46;;;;;;;13.27;8.80;;;13.50;99.90;;;;;;5053406;28;20573;-89
2022/12/28 08:44:12;;;;;;;11.50;7.75;;;14.00;99.90;;;;;;5052201;28;20106;-89
2022/12/28 08:46:39;;;;;;;11.85;8.32;;;14.90;99.90;;;;;;5053365;28;20436;-89
2022/12/28 08:49:05;;;;;;;12.48;8.27;;;14.10;99.90;;;;;;5053283;28;20033;-89
2022/12/28 08:51:36;;;;;;;11.80;7.72;;;15.30;99.90;;;;;;5053746;28;20025;-89
2022/12/28 08:54:02;;;;;;;14.60;8.02;;;15.10;99.90;;;;;;5051817;28;20025;-89
2022/12/28 08:56:31;;;;;;;8.27;6.93;;;14.60;99.90;;;;;;5052899;28;20560;-89
2022/12/28 08:58:57;;;;;;;9.50;7.30;;;15.60;99.90;;;;;;5052971;28;20481;-89
2022/12/28 09:01:26;;;;;;;8.93;7.47;;;16.30;99.90;;;;;;5052890;28;20072;-89
2022/12/28 09:03:54;;;;;;;9.63;7.45;;;14.60;99.90;;;;;;5051721;28;20033;-89
2022/12/28 09:06:41;;;;;;;10.05;7.25;;;14.20;99.90;;;;;;5053208;28;20040;-88
2022/12/28 09:09:11;;;;;;;11.02;8.20;;;16.30;99.90;;;;;;5051326;28;20036;-89
2022/12/28 09:11:38;;;;;;;9.75;7.70;;;15.90;99.90;;;;;;5050935;28;20082;-89
2022/12/28 09:14:06;;;;;;;10.70;8.77;;;16.60;99.90;;;;;;5051667;28;20039;-88
2022/12/28 09:16:32;;;;;;;11.07;7.25;;;15.60;99.90;;;;;;5053297;28;20056;-89
2022/12/28 09:18:59;;;;;;;10.73;7.82;;;17.80;99.90;;;;;;5051556;28;20490;-89
2022/12/28 09:21:32;;;;;;;10.60;8.00;;;17.30;99.90;;;;;;5052956;28;20025;-89
2022/12/28 09:23:58;;;;;;;10.52;8.30;;;16.80;99.90;;;;;;5052803;28;20111;-89
2022/12/28 09:26:30;;;;;;;9.77;8.07;;;17.60;99.90;;;;;;5052560;28;20098;-89
2022/12/28 09:28:57;;;;;;;9.18;8.25;;;18.70;99.90;;;;;;5053700;28;20036;-90
2022/12/28 09:31:26;;;;;;;11.68;8.57;;;18.10;99.90;;;;;;5051238;28;20025;-89
2022/12/28 09:33:58;;;;;;;10.60;7.50;;;18.00;99.90;;;;;;5052845;28;20104;-89
2022/12/28 09:36:24;;;;;;;9.15;7.95;;;20.40;99.90;;;;;;5052542;28;20060;-89
2022/12/28 09:38:51;;;;;;;8.88;7.20;;;19.00;99.90;;;;;;5052903;28;20021;-89
2022/12/28 09:41:31;;;;;;;11.88;9.75;;;21.20;99.90;;;;;;5052143;28;20025;-89
2022/12/28 09:44:06;;;;;;;11.27;9.38;;;23.50;99.90;;;;;;5056612;28;20044;-89
2022/12/28 09:46:33;;;;;;;12.73;9.32;;;25.10;99.90;;;;;;5057030;28;20053;-89
2022/12/28 09:49:03;;;;;;;13.23;10.57;;;25.50;99.90;;;;;;5056583;28;20505;-90
2022/12/28 09:51:37;;;;;;;17.98;11.43;;;25.70;99.90;;;;;;5056789;28;20032;-90
2022/12/28 09:54:04;;;;;;;11.55;9.90;;;26.10;99.90;;;;;;5055713;28;20101;-89
2022/12/28 09:56:35;;;;;;;13.20;11.60;;;26.40;99.90;;;;;;5056597;28;20075;-90
2022/12/28 09:59:04;;;;;;;13.95;11.07;;;26.30;99.90;;;;;;5056123;28;20029;-89
2022/12/28 10:01:31;;;;;;;11.00;9.70;;;26.50;99.90;;;;;;5056289;28;20075;-89
2022/12/28 10:03:59;;;;;;;13.63;12.10;;;27.00;99.90;;;;;;5056073;28;20091;-90
2022/12/28 10:06:28;;;;;;;12.63;11.32;;;27.40;99.90;;;;;;5055402;28;20083;-90
2022/12/28 10:08:57;;;;;;;12.18;10.80;;;26.90;99.90;;;;;;5056732;28;20573;-90
2022/12/28 10:11:29;;;;;;;13.73;11.25;;;27.10;99.90;;;;;;5056585;28;20021;-91
2022/12/28 10:14:00;;;;;;;11.98;10.77;;;27.40;99.90;;;;;;5056278;28;20033;-91
2022/12/28 10:16:30;;;;;;;10.90;9.80;;;27.00;99.90;;;;;;5055757;28;20046;-90
2022/12/28 10:18:56;;;;;;;11.70;10.02;;;27.20;99.90;;;;;;5055796;28;20032;-91
2022/12/28 10:21:23;;;;;;;11.32;9.75;;;27.70;99.90;;;;;;5055094;28;20021;-89
2022/12/28 10:23:51;;;;;;;13.52;10.30;;;28.60;99.90;;;;;;5054829;28;20037;-87
2022/12/28 10:26:19;;;;;;;12.00;10.80;;;29.20;99.90;;;;;;5055398;28;20025;-88
2022/12/28 10:28:53;;;;;;;12.48;11.13;;;28.30;99.90;;;;;;5055308;28;20032;-89
2022/12/28 10:31:37;;;;;;;13.68;12.20;;;23.40;99.90;;;;;;5056258;28;20037;-89
2022/12/28 10:34:15;;;;;;;16.85;12.52;;;23.00;99.90;;;;;;5055404;28;20489;-90
2022/12/28 10:36:41;;;;;;;14.80;12.43;;;19.90;99.90;;;;;;5055759;28;20037;-93
2022/12/28 10:39:24;;;;;;;21.40;13.55;;;19.30;99.90;;;;;;5036998;28;20033;-92
2022/12/28 10:41:51;;;;;;;16.25;11.82;;;19.40;99.90;;;;;;5053400;28;20045;-92
2022/12/28 10:44:28;;;;;;;16.10;12.63;;;18.90;99.90;;;;;;5056039;28;20037;-91
2022/12/28 10:46:57;;;;;;;14.05;11.80;;;23.60;99.90;;;;;;5056143;28;20048;-93
2022/12/28 10:49:26;;;;;;;12.60;11.27;;;26.50;99.90;;;;;;5054368;28;20029;-91
2022/12/28 10:52:17;;;;;;;14.88;11.45;;;26.90;99.90;;;;;;5055972;28;20017;-92
2022/12/28 10:54:43;;;;;;;14.18;11.48;;;28.30;99.90;;;;;;5054457;28;20036;-92
2022/12/28 10:57:41;;;;;;;13.02;9.90;;;27.70;99.90;;;;;;5055920;28;20025;-93
2022/12/28 11:00:18;;;;;;;12.65;10.90;;;25.70;99.90;;;;;;4973708;28;20035;-86
2022/12/28 11:02:43;;;;;;;12.57;11.27;;;24.50;99.90;;;;;;4972628;28;20046;-90
2022/12/28 11:05:19;;;;;;;12.98;11.40;;;24.00;99.90;;;;;;4974981;28;20041;-89
2022/12/28 11:07:45;;;;;;;13.88;11.55;;;23.80;99.90;;;;;;4974392;28;20035;-90
2022/12/28 11:10:21;;;;;;;11.55;10.32;;;20.70;99.90;;;;;;4973944;28;20085;-86
2022/12/28 11:12:47;;;;;;;13.90;9.55;;;19.30;99.90;;;;;;4973460;28;20151;-88
2022/12/28 11:15:18;;;;;;;15.75;11.45;;;18.90;99.90;;;;;;4974169;28;20082;-93
2022/12/28 11:17:57;;;;;;;12.52;10.20;;;20.10;99.90;;;;;;4974677;28;20050;-90
2022/12/28 11:20:30;;;;;;;11.88;10.68;;;21.80;99.90;;;;;;4975807;28;20439;-95
2022/12/28 11:22:56;;;;;;;13.10;9.60;;;25.10;99.90;;;;;;4976209;28;20042;-96
2022/12/28 11:25:30;;;;;;;9.45;8.50;;;24.00;99.90;;;;;;4959010;28;20510;-92
2022/12/28 11:27:56;;;;;;;9.40;8.40;;;23.30;99.90;;;;;;4974554;28;20054;-90
2022/12/28 11:30:22;;;;;;;9.93;8.85;;;22.40;99.90;;;;;;4974470;28;20034;-91
2022/12/28 11:32:57;;;;;;;11.88;9.15;;;22.40;99.90;;;;;;4955286;28;20031;-92
2022/12/28 11:35:27;;;;;;;9.25;8.10;;;20.40;99.90;;;;;;5005017;28;20756;-94
2022/12/28 11:37:57;;;;;;;8.57;7.55;;;19.40;99.90;;;;;;5053826;28;20482;-94
2022/12/28 11:40:51;;;;;;;7.65;6.85;;;19.40;99.90;;;;;;5053950;28;20454;-91
2022/12/28 11:43:29;;;;;;;6.32;5.47;;;18.50;99.90;;;;;;5055189;28;20510;-93
2022/12/28 11:46:03;;;;;;;9.73;5.43;;;17.20;99.90;;;;;;5053256;28;20055;-91
2022/12/28 11:48:41;;;;;;;6.88;5.30;;;17.30;99.90;;;;;;5054174;28;20017;-90
2022/12/28 11:51:20;;;;;;;6.35;5.38;;;16.20;99.90;;;;;;5054079;28;20047;-88
2022/12/28 11:53:46;;;;;;;6.90;4.80;;;16.80;99.90;;;;;;5053293;28;20029;-88
2022/12/28 11:56:14;;;;;;;6.50;4.03;;;17.10;99.90;;;;;;5051612;28;20037;-84
2022/12/28 11:58:39;;;;;;;6.38;3.63;;;16.50;99.90;;;;;;5053775;28;20025;-85
2022/12/28 12:01:09;;;;;;;5.35;3.80;;;16.50;99.90;;;;;;5052993;28;20095;-85
2022/12/28 12:03:56;;;;;;;5.90;3.80;;;17.90;99.90;;;;;;5053697;28;20061;-88
2022/12/28 12:06:49;;;;;;;5.63;3.70;;;17.70;99.90;;;;;;5052295;28;20100;-87
2022/12/28 12:09:20;;;;;;;4.32;3.70;;;17.50;99.90;;;;;;5054135;28;20029;-88
2022/12/28 12:11:48;;;;;;;4.97;3.65;;;16.50;99.90;;;;;;5053467;28;20079;-86
2022/12/28 12:14:17;;;;;;;2.92;2.60;;;16.00;99.90;;;;;;5048106;28;20045;-87
2022/12/28 12:16:47;;;;;;;3.35;2.42;;;15.40;99.90;;;;;;5049524;28;20029;-87
2022/12/28 12:19:30;;;;;;;2.35;1.73;;;15.20;99.90;;;;;;5052831;28;20029;-87
2022/12/28 12:22:11;;;;;;;4.32;1.67;;;15.00;99.90;;;;;;5053200;28;20051;-85
2022/12/28 12:25:17;;;;;;;5.20;3.53;;;15.00;99.90;;;;;;5052856;28;20041;-88
2022/12/28 12:28:09;;;;;;;2.80;1.42;;;14.80;99.90;;;;;;5052811;28;20033;-88
2022/12/28 12:30:36;;;;;;;2.05;1.50;;;14.50;99.90;;;;;;5047776;28;20045;-88
2022/12/28 12:33:11;;;;;;;2.13;1.60;;;14.30;99.90;;;;;;5052639;28;20035;-87
2022/12/28 12:36:11;;;;;;;3.58;1.50;;;14.30;99.90;;;;;;5034032;28;20025;-88
2022/12/28 12:39:14;;;;;;;1.73;1.10;;;14.00;99.90;;;;;;5044700;28;20033;-87
2022/12/28 12:42:04;;;;;;;2.25;1.20;;;13.90;99.90;;;;;;5053629;28;20028;-87
2022/12/28 12:44:43;;;;;;;1.23;1.00;;;13.90;99.90;;;;;;5053287;28;20398;-87
2022/12/28 12:47:15;;;;;;;2.67;1.40;;;13.80;99.90;;;;;;5053151;28;20044;-88
2022/12/28 12:49:54;;;;;;;1.42;1.10;;;13.70;99.90;;;;;;5052618;28;20112;-87
2022/12/28 12:52:36;;;;;;;2.50;1.70;;;13.80;99.90;;;;;;5052781;28;20100;-88
2022/12/28 12:55:20;;;;;;;2.17;1.40;;;13.80;99.90;;;;;;5053150;28;20044;-87
2022/12/28 12:58:04;;;;;;;2.67;1.23;;;13.90;99.90;;;;;;5052969;28;20021;-88
2022/12/28 13:01:00;;;;;;;2.97;1.60;;;13.90;99.90;;;;;;5052834;28;20090;-87
2022/12/28 13:03:32;;;;;;;1.77;1.30;;;14.20;99.90;;;;;;5051412;28;20040;-87
2022/12/28 13:05:58;;;;;;;1.52;1.10;;;14.50;99.90;;;;;;5052921;28;20074;-87
2022/12/28 13:08:46;;;;;;;1.80;1.52;;;14.90;99.90;;;;;;5053166;28;20025;-88
2022/12/28 13:11:13;;;;;;;1.40;1.17;;;16.70;99.90;;;;;;5053285;28;20036;-88
2022/12/28 13:13:42;;;;;;;1.17;1.05;;;18.50;99.90;;;;;;5051439;28;20549;-88
2022/12/28 13:16:11;;;;;;;1.58;1.20;;;19.50;99.90;;;;;;5052830;28;20025;-88
2022/12/28 13:18:37;;;;;;;2.03;1.30;;;20.20;99.90;;;;;;5052443;28;20056;-88
2022/12/28 13:21:05;;;;;;;1.55;1.45;;;19.90;99.90;;;;;;5052728;28;20049;-88
2022/12/28 13:23:40;;;;;;;3.08;1.00;;;19.80;99.90;;;;;;5052704;28;20036;-88